createdAt,value
2018-07-07T00:01:12.384Z,99.90
2018-07-07T00:04:23.126Z,99.90
2018-07-07T00:07:34.050Z,99.90
2018-07-07T00:10:45.572Z,99.90
2018-07-07T00:13:56.496Z,99.90
2018-07-07T00:17:07.406Z,99.90
2018-07-07T00:20:19.046Z,99.90
2018-07-07T00:23:29.806Z,99.90
2018-07-07T00:26:40.769Z,99.90
2018-07-07T00:29:51.365Z,99.90
2018-07-07T00:34:31.554Z,99.90
2018-07-07T00:37:42.768Z,99.90
2018-07-07T00:40:53.614Z,99.90
2018-07-07T00:44:04.146Z,99.90
2018-07-07T00:47:14.906Z,99.90
2018-07-07T00:50:26.324Z,99.90
2018-07-07T00:53:36.495Z,99.90
2018-07-07T00:56:47.248Z,99.90
2018-07-07T00:59:57.940Z,99.90
2018-07-07T01:03:08.743Z,99.90
2018-07-07T01:06:27.847Z,99.90
2018-07-07T01:09:38.601Z,99.90
2018-07-07T01:12:49.455Z,99.90
2018-07-07T01:16:00.044Z,99.90
2018-07-07T01:19:10.683Z,99.90
2018-07-07T01:22:21.809Z,99.90
2018-07-07T01:25:32.438Z,99.90
2018-07-07T01:28:42.862Z,99.90
2018-07-07T01:31:54.107Z,99.90
2018-07-07T01:35:04.322Z,99.90
2018-07-07T01:38:15.075Z,99.90
2018-07-07T01:41:26.106Z,99.90
2018-07-07T01:44:36.713Z,99.90
2018-07-07T01:47:47.431Z,99.90
2018-07-07T01:50:58.130Z,99.90
2018-07-07T01:54:09.047Z,99.90
2018-07-07T01:57:19.825Z,99.90
2018-07-07T02:00:30.672Z,99.90
2018-07-07T02:03:41.385Z,99.90
2018-07-07T02:06:52.395Z,99.90
2018-07-07T02:10:03.146Z,99.90
2018-07-07T02:13:13.861Z,99.90
2018-07-07T02:16:25.052Z,99.90
2018-07-07T02:19:35.811Z,99.90
2018-07-07T02:22:47.667Z,99.90
2018-07-07T02:25:58.501Z,99.90
2018-07-07T02:29:09.370Z,99.90
2018-07-07T02:32:20.561Z,99.90
2018-07-07T02:35:31.085Z,99.90
2018-07-07T02:38:41.944Z,99.90
2018-07-07T02:41:52.731Z,99.90
2018-07-07T02:45:03.504Z,99.90
2018-07-07T02:48:14.510Z,99.90
2018-07-07T02:51:25.325Z,99.90
2018-07-07T02:54:35.432Z,99.90
2018-07-07T02:57:46.178Z,99.90
2018-07-07T03:00:57.171Z,99.90
2018-07-07T03:04:07.846Z,99.90
2018-07-07T03:07:20.527Z,99.90
2018-07-07T03:10:31.206Z,99.90
2018-07-07T03:13:41.089Z,99.90
2018-07-07T03:16:52.542Z,99.90
2018-07-07T03:20:02.559Z,99.90
2018-07-07T03:23:12.835Z,99.90
2018-07-07T03:26:23.836Z,99.90
2018-07-07T03:29:34.352Z,99.90
2018-07-07T03:32:45.168Z,99.90
2018-07-07T03:35:55.932Z,99.90
2018-07-07T03:39:07.458Z,99.90
2018-07-07T03:42:17.642Z,99.90
2018-07-07T03:45:28.355Z,99.90
2018-07-07T03:48:39.297Z,99.90
2018-07-07T03:51:49.912Z,99.90
2018-07-07T03:55:00.071Z,99.90
2018-07-07T03:58:10.608Z,99.90
2018-07-07T04:04:31.279Z,99.90
2018-07-07T04:07:42.066Z,99.90
2018-07-07T04:10:52.829Z,99.90
2018-07-07T04:14:03.812Z,99.90
2018-07-07T04:17:14.458Z,99.90
2018-07-07T04:20:25.331Z,99.90
2018-07-07T04:23:36.454Z,99.90
2018-07-07T04:26:47.035Z,99.90
2018-07-07T04:29:57.809Z,99.90
2018-07-07T04:33:08.739Z,99.90
2018-07-07T04:36:19.530Z,99.90
2018-07-07T04:39:30.468Z,99.90
2018-07-07T04:42:41.608Z,99.90
2018-07-07T04:45:52.663Z,99.90
2018-07-07T04:49:03.172Z,99.90
2018-07-07T04:52:13.225Z,99.90
2018-07-07T04:55:23.862Z,99.90
2018-07-07T04:58:34.778Z,99.90
2018-07-07T05:01:45.593Z,99.90
2018-07-07T05:04:56.664Z,99.90
2018-07-07T05:08:07.510Z,99.90
2018-07-07T05:11:17.977Z,99.90
2018-07-07T05:14:28.688Z,99.90
2018-07-07T05:17:40.388Z,99.90
2018-07-07T05:20:52.175Z,99.90
2018-07-07T05:24:02.499Z,99.90
2018-07-07T05:27:12.852Z,99.90
2018-07-07T05:30:23.660Z,99.90
2018-07-07T05:33:34.215Z,99.90
2018-07-07T05:36:44.678Z,99.90
2018-07-07T05:39:55.565Z,99.90
2018-07-07T05:43:06.235Z,99.90
2018-07-07T05:46:16.791Z,99.90
2018-07-07T05:49:27.448Z,99.90
2018-07-07T05:52:38.248Z,99.90
2018-07-07T05:55:49.178Z,99.90
2018-07-07T05:58:59.449Z,99.90
2018-07-07T06:02:10.317Z,99.90
2018-07-07T06:05:21.028Z,99.90
2018-07-07T06:08:31.906Z,99.90
2018-07-07T06:11:42.379Z,99.90
2018-07-07T06:14:53.408Z,99.90
2018-07-07T06:18:04.003Z,99.90
2018-07-07T06:21:14.608Z,99.90
2018-07-07T06:24:26.699Z,99.90
2018-07-07T06:27:37.283Z,99.90
2018-07-07T06:30:48.048Z,99.90
2018-07-07T06:33:59.024Z,99.90
2018-07-07T06:37:09.691Z,99.90
2018-07-07T06:40:19.917Z,99.90
2018-07-07T06:43:30.729Z,99.90
2018-07-07T06:46:41.413Z,99.90
2018-07-07T06:49:52.166Z,99.90
2018-07-07T06:53:03.077Z,99.90
2018-07-07T06:56:14.084Z,99.90
2018-07-07T06:59:24.668Z,99.90
2018-07-07T07:02:35.425Z,99.90
2018-07-07T07:05:46.150Z,99.90
2018-07-07T07:08:57.860Z,99.90
2018-07-07T07:12:08.706Z,99.90
2018-07-07T07:15:19.376Z,99.90
2018-07-07T07:18:30.278Z,99.90
2018-07-07T07:21:41.557Z,99.90
2018-07-07T07:24:52.347Z,99.90
2018-07-07T07:28:02.717Z,99.90
2018-07-07T07:31:13.458Z,99.90
2018-07-07T07:34:24.360Z,99.90
2018-07-07T07:37:35.098Z,99.90
2018-07-07T07:40:46.054Z,99.90
2018-07-07T07:43:57.145Z,99.90
2018-07-07T07:47:07.656Z,99.90
2018-07-07T07:50:18.461Z,99.90
2018-07-07T07:53:29.177Z,99.90
2018-07-07T07:56:40.154Z,99.90
2018-07-07T07:59:50.842Z,99.90
2018-07-07T08:03:01.342Z,99.90
2018-07-07T08:06:12.237Z,99.90
2018-07-07T08:09:23.103Z,98.30
2018-07-07T08:12:33.641Z,99.00
2018-07-07T08:15:44.952Z,95.80
2018-07-07T08:18:58.140Z,96.10
2018-07-07T08:22:09.958Z,95.50
2018-07-07T08:25:22.142Z,96.10
2018-07-07T08:28:33.639Z,95.50
2018-07-07T08:31:46.280Z,95.00
2018-07-07T08:34:57.774Z,95.20
2018-07-07T08:38:16.621Z,94.70
2018-07-07T08:41:28.405Z,90.00
2018-07-07T08:44:40.008Z,85.70
2018-07-07T08:47:50.913Z,87.60
2018-07-07T08:51:01.458Z,85.70
2018-07-07T08:54:11.674Z,89.90
2018-07-07T08:57:22.255Z,86.60
2018-07-07T09:00:32.910Z,86.30
2018-07-07T09:03:44.058Z,84.60
2018-07-07T09:06:54.452Z,79.60
2018-07-07T09:10:04.615Z,76.10
2018-07-07T09:13:15.069Z,72.30
2018-07-07T09:16:26.379Z,72.90
2018-07-07T09:19:36.744Z,71.40
2018-07-07T09:22:47.839Z,67.50
2018-07-07T09:25:58.735Z,64.20
2018-07-07T09:29:09.140Z,63.40
2018-07-07T09:32:19.718Z,61.70
2018-07-07T09:35:30.611Z,59.00
2018-07-07T09:38:41.468Z,54.80
2018-07-07T09:41:51.813Z,55.20
2018-07-07T09:45:02.510Z,59.50
2018-07-07T09:48:13.302Z,58.00
2018-07-07T09:51:24.407Z,56.30
2018-07-07T09:54:34.581Z,53.50
2018-07-07T09:57:45.378Z,51.70
2018-07-07T10:00:55.896Z,45.90
2018-07-07T10:04:06.677Z,47.10
2018-07-07T10:07:17.169Z,47.30
2018-07-07T10:10:27.998Z,46.20
2018-07-07T10:13:38.518Z,45.80
2018-07-07T10:16:49.108Z,48.30
2018-07-07T10:20:00.140Z,43.20
2018-07-07T10:23:10.538Z,45.10
2018-07-07T10:26:21.381Z,45.60
2018-07-07T10:29:32.141Z,44.60
2018-07-07T10:32:42.935Z,43.30
2018-07-07T10:35:53.383Z,44.60
2018-07-07T10:39:05.042Z,45.60
2018-07-07T10:42:16.068Z,44.60
2018-07-07T10:45:26.867Z,44.50
2018-07-07T10:48:37.538Z,42.00
2018-07-07T10:51:48.135Z,43.40
2018-07-07T10:54:59.024Z,43.80
2018-07-07T10:58:09.381Z,42.20
2018-07-07T11:01:20.069Z,42.20
2018-07-07T11:07:40.502Z,44.50
2018-07-07T11:10:51.244Z,43.60
2018-07-07T11:14:01.876Z,41.80
2018-07-07T11:17:13.492Z,42.40
2018-07-07T11:20:24.028Z,41.90
2018-07-07T11:23:34.795Z,42.30
2018-07-07T11:26:45.871Z,41.60
2018-07-07T11:29:56.057Z,40.90
2018-07-07T11:33:06.823Z,39.20
2018-07-07T11:36:17.403Z,38.50
2018-07-07T11:39:28.520Z,39.00
2018-07-07T11:42:38.971Z,38.00
2018-07-07T11:45:49.639Z,38.30
2018-07-07T11:49:00.556Z,37.90
2018-07-07T11:52:11.370Z,38.20
2018-07-07T11:55:22.998Z,37.60
2018-07-07T11:58:33.250Z,36.10
2018-07-07T12:01:43.672Z,36.60
2018-07-07T12:04:54.258Z,35.80
2018-07-07T12:08:13.873Z,34.70
2018-07-07T12:11:15.669Z,35.70
2018-07-07T12:14:26.182Z,34.80
2018-07-07T12:17:36.829Z,35.60
2018-07-07T12:20:47.554Z,34.20
2018-07-07T12:23:58.220Z,34.30
2018-07-07T12:27:08.560Z,35.00
2018-07-07T12:30:19.169Z,34.10
2018-07-07T12:33:29.418Z,34.30
2018-07-07T12:36:39.816Z,34.30
2018-07-07T12:39:49.759Z,35.90
2018-07-07T12:42:59.592Z,34.40
2018-07-07T12:46:10.130Z,32.80
2018-07-07T12:49:20.830Z,34.50
2018-07-07T12:52:31.378Z,33.90
2018-07-07T12:55:41.509Z,33.70
2018-07-07T12:58:52.533Z,34.00
2018-07-07T13:02:02.706Z,33.00
2018-07-07T13:05:12.876Z,34.20
2018-07-07T13:08:23.339Z,34.70
2018-07-07T13:11:33.439Z,32.30
2018-07-07T13:14:43.132Z,33.70
2018-07-07T13:17:53.206Z,34.70
2018-07-07T13:21:03.510Z,33.90
2018-07-07T13:24:14.020Z,32.80
2018-07-07T13:27:24.169Z,33.00
2018-07-07T13:30:34.081Z,32.60
2018-07-07T13:33:44.779Z,33.00
2018-07-07T13:36:55.409Z,34.40
2018-07-07T13:40:06.158Z,33.80
2018-07-07T13:43:16.456Z,33.50
2018-07-07T13:46:26.157Z,32.60
2018-07-07T13:49:35.946Z,33.40
2018-07-07T13:52:46.363Z,33.80
2018-07-07T13:55:57.204Z,34.90
2018-07-07T13:59:07.843Z,33.30
2018-07-07T14:02:18.515Z,34.20
2018-07-07T14:05:29.191Z,33.60
2018-07-07T14:08:39.599Z,35.90
2018-07-07T14:11:49.334Z,35.80
2018-07-07T14:15:01.615Z,34.70
2018-07-07T14:18:11.593Z,35.40
2018-07-07T14:21:22.328Z,35.70
2018-07-07T14:24:33.245Z,35.30
2018-07-07T14:27:43.635Z,35.00
2018-07-07T14:30:53.970Z,35.70
2018-07-07T14:34:04.719Z,35.20
2018-07-07T14:37:15.098Z,33.00
2018-07-07T14:40:24.862Z,33.60
2018-07-07T14:43:46.530Z,34.60
2018-07-07T14:46:57.473Z,33.80
2018-07-07T14:50:08.321Z,34.80
2018-07-07T14:53:18.853Z,34.70
2018-07-07T14:56:29.419Z,34.00
2018-07-07T14:59:40.064Z,36.00
2018-07-07T15:02:51.309Z,35.20
2018-07-07T15:06:01.594Z,36.10
2018-07-07T15:12:21.901Z,37.10
2018-07-07T15:15:32.572Z,36.40
2018-07-07T15:18:43.422Z,37.40
2018-07-07T15:21:53.762Z,36.50
2018-07-07T15:25:03.692Z,38.10
2018-07-07T15:28:14.482Z,37.70
2018-07-07T15:31:25.245Z,38.70
2018-07-07T15:34:35.017Z,38.80
2018-07-07T15:37:46.078Z,39.30
2018-07-07T15:40:56.206Z,39.40
2018-07-07T15:44:07.324Z,39.90
2018-07-07T15:47:17.938Z,40.40
2018-07-07T15:50:28.314Z,40.20
2018-07-07T15:53:38.788Z,40.20
2018-07-07T15:56:49.175Z,41.70
2018-07-07T15:59:59.933Z,41.00
2018-07-07T16:03:09.643Z,40.40
2018-07-07T16:06:20.179Z,41.00
2018-07-07T16:09:30.782Z,42.00
2018-07-07T16:12:41.508Z,41.70
2018-07-07T16:15:52.055Z,42.00
2018-07-07T16:19:02.891Z,42.90
2018-07-07T16:22:13.204Z,43.50
2018-07-07T16:25:23.827Z,44.50
2018-07-07T16:28:33.629Z,45.00
2018-07-07T16:31:44.403Z,43.70
2018-07-07T16:34:55.343Z,44.10
2018-07-07T16:38:05.315Z,44.00
2018-07-07T16:41:16.392Z,42.20
2018-07-07T16:44:26.859Z,42.40
2018-07-07T16:50:48.309Z,58.50
2018-07-07T16:53:59.287Z,63.10
2018-07-07T16:57:11.793Z,65.00
2018-07-07T17:00:22.434Z,64.60
2018-07-07T17:03:32.932Z,64.80
2018-07-07T17:06:43.576Z,63.80
2018-07-07T17:09:53.902Z,64.40
2018-07-07T17:13:05.358Z,64.80
2018-07-07T17:16:14.983Z,64.30
2018-07-07T17:19:25.923Z,63.40
2018-07-07T17:22:36.666Z,62.30
2018-07-07T17:25:47.619Z,61.90
2018-07-07T17:28:58.296Z,62.90
2018-07-07T17:32:08.523Z,64.60
2018-07-07T17:35:19.230Z,64.90
2018-07-07T17:38:30.496Z,62.00
2018-07-07T17:41:42.598Z,43.90
2018-07-07T17:44:53.241Z,44.10
2018-07-07T17:48:03.898Z,44.50
2018-07-07T17:51:14.077Z,45.00
2018-07-07T17:54:24.013Z,45.40
2018-07-07T17:57:34.907Z,45.30
2018-07-07T18:00:45.450Z,44.90
2018-07-07T18:03:56.043Z,45.10
2018-07-07T18:07:06.234Z,45.50
2018-07-07T18:10:15.910Z,45.90
2018-07-07T18:13:26.649Z,46.10
2018-07-07T18:16:38.030Z,46.80
2018-07-07T18:19:48.261Z,47.20
2018-07-07T18:22:59.490Z,47.60
2018-07-07T18:26:10.560Z,47.70
2018-07-07T18:29:21.967Z,47.80
2018-07-07T18:32:32.775Z,48.40
2018-07-07T18:35:43.119Z,48.70
2018-07-07T18:38:53.753Z,48.50
2018-07-07T18:42:04.457Z,48.70
2018-07-07T18:45:15.391Z,48.60
2018-07-07T18:48:25.769Z,48.80
2018-07-07T18:51:36.740Z,49.40
2018-07-07T18:54:47.572Z,49.20
2018-07-07T18:57:58.675Z,49.10
2018-07-07T19:01:10.203Z,49.20
2018-07-07T19:04:21.095Z,50.20
2018-07-07T19:07:32.431Z,49.80
2018-07-07T19:10:43.404Z,49.90
2018-07-07T19:13:54.008Z,50.00
2018-07-07T19:17:04.809Z,50.50
2018-07-07T19:20:20.557Z,50.70
2018-07-07T19:23:37.338Z,51.00
2018-07-07T19:26:51.296Z,51.00
2018-07-07T19:30:02.527Z,51.30
2018-07-07T19:33:18.374Z,51.10
2018-07-07T19:36:33.957Z,51.40
2018-07-07T19:39:46.127Z,51.40
2018-07-07T19:42:56.687Z,51.70
2018-07-07T19:46:07.451Z,52.10
2018-07-07T19:49:17.914Z,52.10
2018-07-07T19:52:28.739Z,52.70
2018-07-07T19:58:53.933Z,53.00
2018-07-07T20:02:04.392Z,53.10
2018-07-07T20:05:15.116Z,53.10
2018-07-07T20:08:26.799Z,53.50
2018-07-07T20:11:38.162Z,53.70
2018-07-07T20:14:48.936Z,53.50
2018-07-07T20:18:04.700Z,54.30
2018-07-07T20:21:32.497Z,54.80
2018-07-07T20:24:43.519Z,55.20
2018-07-07T20:27:59.136Z,56.50
2018-07-07T20:31:09.916Z,57.30
2018-07-07T20:34:25.813Z,57.50
2018-07-07T20:37:37.555Z,58.10
2018-07-07T20:40:47.703Z,58.90
2018-07-07T20:43:58.657Z,59.10
2018-07-07T20:47:10.259Z,59.70
2018-07-07T20:50:20.759Z,61.20
2018-07-07T20:53:31.755Z,60.60
2018-07-07T20:56:42.387Z,61.30
2018-07-07T20:59:53.101Z,62.30
2018-07-07T21:03:04.122Z,63.40
2018-07-07T21:06:14.510Z,63.00
2018-07-07T21:09:25.648Z,64.40
2018-07-07T21:12:36.005Z,64.20
2018-07-07T21:15:46.581Z,63.80
2018-07-07T21:18:57.238Z,64.40
2018-07-07T21:22:14.641Z,64.90
2018-07-07T21:25:25.276Z,65.80
2018-07-07T21:28:35.607Z,66.60
2018-07-07T21:31:46.949Z,66.70
2018-07-07T21:34:57.747Z,67.10
2018-07-07T21:38:08.854Z,67.40
2018-07-07T21:41:19.577Z,68.20
2018-07-07T21:44:30.736Z,69.20
2018-07-07T21:47:41.636Z,69.40
2018-07-07T21:50:52.760Z,69.90
2018-07-07T21:54:03.386Z,71.10
2018-07-07T21:57:19.003Z,72.20
2018-07-07T22:00:34.988Z,72.00
2018-07-07T22:03:50.308Z,72.20
2018-07-07T22:07:07.348Z,72.60
2018-07-07T22:10:17.564Z,74.20
2018-07-07T22:13:27.720Z,76.00
2018-07-07T22:16:38.528Z,78.80
2018-07-07T22:19:49.310Z,79.60
2018-07-07T22:23:00.388Z,81.20
2018-07-07T22:26:11.268Z,82.90
2018-07-07T22:29:22.397Z,85.90
2018-07-07T22:32:38.794Z,86.60
2018-07-07T22:35:54.496Z,87.80
2018-07-07T22:39:05.080Z,88.70
2018-07-07T22:42:17.461Z,89.90
2018-07-07T22:45:28.119Z,91.20
2018-07-07T22:48:38.904Z,92.10
2018-07-07T22:51:49.755Z,94.00
2018-07-07T22:55:00.571Z,93.70
2018-07-07T22:58:11.522Z,93.90
2018-07-07T23:01:22.566Z,94.50
2018-07-07T23:04:33.051Z,95.30
2018-07-07T23:07:44.009Z,95.40
2018-07-07T23:10:54.633Z,96.50
2018-07-07T23:14:05.692Z,97.60
2018-07-07T23:17:15.756Z,99.60
2018-07-07T23:20:26.686Z,99.90
2018-07-07T23:23:37.218Z,99.90
2018-07-07T23:26:47.240Z,99.90
2018-07-07T23:29:58.184Z,99.90
2018-07-07T23:36:45.176Z,99.90
2018-07-07T23:39:55.630Z,99.90
2018-07-07T23:43:06.811Z,99.90
2018-07-07T23:46:17.342Z,99.90
2018-07-07T23:49:28.071Z,99.90
2018-07-07T23:55:55.802Z,99.90
2018-07-07T23:59:06.568Z,99.90
